Time;durP1;ratioP1;P1;durP2;ratioP2;P2;SDS_P1;SDS_P2;PMS_P1;PMS_P2;Temp;Humidity;BMP_temperature;BMP_pressure;BME280_temperature;BME280_humidity;BME280_pressure;Samples;Min_cycle;Max_cycle;Signal;HPM_P1;HPM_P2
2024/04/20 00:01:05;;;;;;;;;0.33;0.00;;;;;23.76;37.72;102025.44;5184548;27;43844;-75
2024/04/20 00:03:30;;;;;;;;;2.33;1.00;;;;;23.72;37.41;102024.09;5184077;27;45677;-75
2024/04/20 00:05:55;;;;;;;;;0.67;0.67;;;;;23.67;37.83;102016.63;5184909;27;43958;-75
2024/04/20 00:08:21;;;;;;;;;0.33;0.33;;;;;23.95;37.10;102071.31;5185056;27;43926;-74
2024/04/20 00:10:46;;;;;;;;;0.00;0.00;;;;;23.93;37.26;102062.69;5184944;27;43797;-75
2024/04/20 00:13:11;;;;;;;;;1.33;0.00;;;;;23.85;37.89;102061.69;5183106;27;46055;-76
2024/04/20 00:15:41;;;;;;;;;0.67;0.67;;;;;23.89;37.37;102062.16;5184978;27;43981;-76
2024/04/20 00:18:06;;;;;;;;;1.00;1.00;;;;;23.68;36.92;102028.91;5184414;27;43999;-75
2024/04/20 00:20:32;;;;;;;;;2.00;2.00;;;;;23.95;37.29;102077.47;5184853;27;43740;-76
2024/04/20 00:22:59;;;;;;;;;1.00;1.00;;;;;23.65;37.41;102028.41;5184640;27;45676;-75
2024/04/20 00:25:24;;;;;;;;;1.67;1.00;;;;;23.94;37.92;102077.66;5184482;27;44070;-75
2024/04/20 00:27:49;;;;;;;;;0.67;0.00;;;;;23.90;38.31;102074.47;5184827;27;44003;-75
2024/04/20 00:30:15;;;;;;;;;0.67;0.67;;;;;23.91;38.36;102078.81;5184513;27;43900;-75
2024/04/20 00:32:40;;;;;;;;;1.67;1.00;;;;;23.91;37.04;102076.16;5184014;27;44753;-74
2024/04/20 00:35:05;;;;;;;;;0.67;0.00;;;;;23.90;38.26;102073.63;5184640;27;43849;-75
2024/04/20 00:37:31;;;;;;;;;1.00;1.00;;;;;23.90;36.82;102078.94;5184701;27;43989;-75
2024/04/20 00:39:56;;;;;;;;;1.67;0.00;;;;;23.84;36.97;102065.31;5184672;27;43951;-75
2024/04/20 00:42:21;;;;;;;;;1.33;1.33;;;;;23.85;38.12;102066.16;5184458;27;43976;-75
2024/04/20 00:44:47;;;;;;;;;1.00;1.00;;;;;23.69;36.84;102043.03;5184516;27;43916;-76
2024/04/20 00:47:12;;;;;;;;;1.33;1.00;;;;;23.83;36.96;102066.34;5184032;27;43947;-75
2024/04/20 00:49:38;;;;;;;;;0.00;0.00;;;;;23.88;37.42;102080.94;5182608;27;43917;-75
2024/04/20 00:52:05;;;;;;;;;0.33;0.33;;;;;23.79;37.64;102069.44;5184461;27;45021;-76
2024/04/20 00:54:31;;;;;;;;;0.67;0.67;;;;;23.77;38.21;102064.31;5184410;27;43948;-76
2024/04/20 00:56:57;;;;;;;;;2.00;2.00;;;;;23.83;38.29;102073.47;5184528;27;43876;-75
2024/04/20 00:59:24;;;;;;;;;0.33;0.33;;;;;23.84;36.87;102081.25;5184631;27;43897;-75
2024/04/20 01:01:50;;;;;;;;;0.00;0.00;;;;;23.82;36.88;102069.97;5183821;27;45154;-75
2024/04/20 01:04:16;;;;;;;;;0.33;0.33;;;;;23.75;37.85;102068.97;5182521;27;43889;-75
2024/04/20 01:06:41;;;;;;;;;1.00;1.00;;;;;23.73;37.98;102069.09;5184255;27;43841;-76
2024/04/20 01:09:07;;;;;;;;;0.00;0.00;;;;;23.72;38.09;102064.81;5182531;27;44027;-74
2024/04/20 01:11:32;;;;;;;;;0.67;0.67;;;;;23.68;37.41;102059.97;5184111;27;43984;-75
2024/04/20 01:14:02;;;;;;;;;0.00;0.00;;;;;23.66;37.61;102070.75;5183950;27;44056;-76
2024/04/20 01:16:28;;;;;;;;;3.00;1.00;;;;;23.78;37.69;102087.25;5183841;27;43916;-75
2024/04/20 01:18:54;;;;;;;;;2.00;2.00;;;;;23.65;36.59;102070.94;5184060;27;43983;-76
2024/04/20 01:21:20;;;;;;;;;1.00;1.00;;;;;23.72;37.61;102082.56;5183663;27;44664;-75
2024/04/20 01:23:51;;;;;;;;;1.00;1.00;;;;;23.68;36.80;102068.75;5184066;27;43999;-75
2024/04/20 01:26:16;;;;;;;;;0.33;0.33;;;;;23.77;36.90;102095.38;5183770;27;44020;-75
2024/04/20 01:28:41;;;;;;;;;1.67;1.00;;;;;23.82;37.54;102103.69;5183917;27;43906;-75
2024/04/20 01:31:07;;;;;;;;;0.33;0.00;;;;;23.82;37.93;102109.00;5183262;27;43932;-75
2024/04/20 01:33:32;;;;;;;;;1.00;1.00;;;;;23.69;37.58;102089.03;5183727;27;43828;-76
2024/04/20 01:35:57;;;;;;;;;5.67;0.67;;;;;23.80;36.80;102109.16;5183869;27;43707;-76
2024/04/20 01:38:23;;;;;;;;;1.00;0.00;;;;;23.76;37.94;102107.00;5209870;27;43927;-76
2024/04/20 01:40:48;;;;;;;;;1.00;1.00;;;;;23.74;36.37;102104.50;5183510;27;45073;-75
2024/04/20 01:43:14;;;;;;;;;0.67;0.67;;;;;23.81;35.77;102123.28;5183583;27;43869;-76
2024/04/20 01:45:40;;;;;;;;;1.00;1.00;;;;;23.80;37.47;102118.97;5183191;27;43895;-76
2024/04/20 01:48:06;;;;;;;;;1.33;1.00;;;;;23.70;36.17;102111.13;5183228;27;44010;-76
2024/04/20 01:50:31;;;;;;;;;1.00;1.00;;;;;23.80;37.71;102121.63;5182947;27;44975;-75
2024/04/20 01:52:56;;;;;;;;;1.67;1.00;;;;;23.71;36.84;102112.78;5183310;27;43865;-75
2024/04/20 01:55:22;;;;;;;;;2.00;0.00;;;;;23.71;36.34;102126.91;5183444;27;44178;-77
2024/04/20 01:57:47;;;;;;;;;1.33;1.00;;;;;23.79;36.89;102135.88;5183267;27;43940;-76
2024/04/20 02:00:13;;;;;;;;;1.00;1.00;;;;;23.61;37.34;102113.75;5208662;27;44894;-75
2024/04/20 02:02:38;;;;;;;;;1.00;1.00;;;;;23.46;36.76;102091.41;5183153;27;44097;-76
2024/04/20 02:05:04;;;;;;;;;0.00;0.00;;;;;23.79;37.93;102152.66;5183312;27;43987;-76
2024/04/20 02:07:29;;;;;;;;;2.00;1.00;;;;;23.68;37.55;102137.03;5183093;27;43984;-76
2024/04/20 02:09:55;;;;;;;;;0.00;0.00;;;;;23.72;36.44;102139.19;5182796;27;43966;-75
2024/04/20 02:12:20;;;;;;;;;1.00;1.00;;;;;23.76;37.57;102138.88;5182851;27;43927;-76
2024/04/20 02:14:45;;;;;;;;;1.67;0.00;;;;;23.63;37.69;102119.72;5182645;27;43923;-75
2024/04/20 02:17:11;;;;;;;;;0.33;0.33;;;;;23.75;36.51;102140.72;5183020;27;43952;-75
2024/04/20 02:19:36;;;;;;;;;1.67;1.67;;;;;23.68;36.25;102131.72;5182452;27;54125;-75
2024/04/20 02:22:01;;;;;;;;;1.67;1.00;;;;;23.67;37.87;102135.34;5182801;27;43773;-75
2024/04/20 02:24:27;;;;;;;;;2.00;1.00;;;;;23.68;37.61;102142.34;5183025;27;43799;-76
2024/04/20 02:26:52;;;;;;;;;1.33;0.33;;;;;23.37;37.17;102094.03;5185883;27;44137;-76
2024/04/20 02:29:17;;;;;;;;;1.00;1.00;;;;;23.73;36.92;102151.47;5185198;27;44379;-76
2024/04/20 02:31:43;;;;;;;;;1.67;1.00;;;;;23.70;36.42;102143.00;5185909;27;43905;-75
2024/04/20 02:34:08;;;;;;;;;0.67;0.67;;;;;23.63;37.38;102126.84;5185915;27;44008;-76
2024/04/20 02:36:34;;;;;;;;;1.00;1.00;;;;;23.74;37.22;102144.34;5185787;27;43922;-75
2024/04/20 02:39:00;;;;;;;;;1.67;0.33;;;;;23.60;36.66;102128.00;5185537;27;45758;-75
2024/04/20 02:41:25;;;;;;;;;0.00;0.00;;;;;23.55;36.89;102118.88;5185600;27;43912;-75
2024/04/20 02:43:51;;;;;;;;;1.67;0.33;;;;;23.73;36.92;102153.34;5185281;27;43809;-76
2024/04/20 02:46:16;;;;;;;;;0.00;0.00;;;;;23.72;36.98;102154.31;5186048;27;44067;-75
2024/04/20 02:48:41;;;;;;;;;0.00;0.00;;;;;23.66;36.87;102149.63;5185249;27;44698;-75
2024/04/20 02:51:07;;;;;;;;;0.33;0.33;;;;;23.72;37.02;102154.31;5185442;27;43871;-76
2024/04/20 02:53:33;;;;;;;;;1.00;1.00;;;;;23.68;37.22;102155.63;5185842;27;43957;-75
2024/04/20 02:55:59;;;;;;;;;1.33;1.00;;;;;23.72;36.44;102151.66;5185484;27;43848;-75
2024/04/20 02:58:24;;;;;;;;;0.00;0.00;;;;;23.70;37.57;102167.75;5184839;27;44768;-75
2024/04/20 03:01:00;;;;;;;;;1.00;1.00;;;;;23.65;36.40;102159.44;5185571;27;43953;-75
2024/04/20 03:03:31;;;;;;;;;1.00;0.00;;;;;23.71;36.99;102168.56;5185566;27;43966;-75
2024/04/20 03:05:57;;;;;;;;;1.00;1.00;;;;;23.59;36.96;102152.94;5185572;27;43994;-75
2024/04/20 03:08:22;;;;;;;;;0.33;0.33;;;;;23.71;37.53;102169.41;5183487;27;45204;-75
2024/04/20 03:10:48;;;;;;;;;1.00;1.00;;;;;23.60;37.26;102159.91;5185208;27;43940;-75
2024/04/20 03:13:14;;;;;;;;;1.67;1.00;;;;;23.70;36.23;102178.41;5185385;27;43935;-76
2024/04/20 03:15:40;;;;;;;;;0.00;0.00;;;;;23.68;37.09;102177.69;5185545;27;43998;-76
2024/04/20 03:18:06;;;;;;;;;0.00;0.00;;;;;23.71;36.89;102187.19;5185405;27;45250;-76
2024/04/20 03:20:31;;;;;;;;;1.67;1.33;;;;;23.41;37.33;102137.03;5185057;27;43840;-76
2024/04/20 03:22:57;;;;;;;;;0.33;0.33;;;;;23.71;37.05;102189.84;5185452;27;43977;-75
2024/04/20 03:25:22;;;;;;;;;1.33;1.00;;;;;23.58;36.68;102164.53;5184670;27;44274;-75
2024/04/20 03:27:47;;;;;;;;;0.00;0.00;;;;;23.62;36.27;102181.00;5185141;27;44850;-76
2024/04/20 03:30:13;;;;;;;;;1.00;1.00;;;;;23.65;36.44;102186.00;5185242;27;43804;-76
2024/04/20 03:32:38;;;;;;;;;1.00;1.00;;;;;23.62;36.71;102184.50;5185364;27;44358;-76
2024/04/20 03:35:04;;;;;;;;;0.00;0.00;;;;;23.57;35.93;102181.50;5185454;27;43935;-76
2024/04/20 03:37:30;;;;;;;;;0.00;0.00;;;;;23.56;36.87;102187.78;5183566;27;45348;-75
2024/04/20 03:39:55;;;;;;;;;1.33;0.00;;;;;23.67;37.11;102202.63;5184612;27;43919;-75
2024/04/20 03:42:20;;;;;;;;;0.00;0.00;;;;;23.67;36.73;102204.44;5185489;27;43904;-76
2024/04/20 03:44:46;;;;;;;;;0.00;0.00;;;;;23.62;37.07;102197.78;5185335;27;43957;-76
2024/04/20 03:47:11;;;;;;;;;2.00;2.00;;;;;23.66;36.20;102208.91;5184672;27;46055;-75
2024/04/20 03:49:36;;;;;;;;;4.00;1.00;;;;;23.56;37.36;102192.25;5185048;27;43975;-76
2024/04/20 03:52:02;;;;;;;;;2.00;1.00;;;;;23.66;36.77;102214.22;5185293;27;43818;-76
2024/04/20 03:54:27;;;;;;;;;1.67;0.00;;;;;23.40;37.03;102177.84;5184688;27;43982;-76
2024/04/20 03:56:52;;;;;;;;;0.00;0.00;;;;;23.60;37.04;102212.22;5185064;27;44010;-75
2024/04/20 03:59:18;;;;;;;;;0.00;0.00;;;;;23.64;37.13;102218.88;5184904;27;43984;-75
2024/04/20 04:01:43;;;;;;;;;1.00;1.00;;;;;23.64;37.50;102226.84;5185443;27;43963;-74
2024/04/20 04:04:09;;;;;;;;;1.00;1.00;;;;;23.61;36.25;102228.00;5185366;27;44016;-74
2024/04/20 04:06:34;;;;;;;;;0.00;0.00;;;;;23.58;35.92;102216.84;5184837;27;44873;-75
2024/04/20 04:08:59;;;;;;;;;1.00;1.00;;;;;23.64;37.03;102237.47;5182706;27;44517;-74
2024/04/20 04:11:25;;;;;;;;;1.00;0.67;;;;;23.49;36.49;102211.50;5185048;27;43988;-74
2024/04/20 04:13:50;;;;;;;;;1.00;1.00;;;;;23.63;36.65;102233.13;5184974;27;43964;-75
2024/04/20 04:16:15;;;;;;;;;1.00;1.00;;;;;23.43;36.33;102196.16;5184752;27;44670;-75
2024/04/20 04:18:41;;;;;;;;;1.67;1.67;;;;;23.46;36.98;102206.47;5184570;27;44008;-75
2024/04/20 04:21:10;;;;;;;;;1.00;1.00;;;;;23.56;36.54;102227.63;5185004;27;43985;-76
2024/04/20 04:23:36;;;;;;;;;0.33;0.33;;;;;23.64;37.04;102234.81;5184498;27;44104;-75
2024/04/20 04:26:03;;;;;;;;;2.33;2.00;;;;;23.56;35.59;102238.25;5184366;27;44702;-76
2024/04/20 04:28:29;;;;;;;;;1.00;1.00;;;;;23.61;36.16;102235.97;5184576;27;43956;-76
2024/04/20 04:30:54;;;;;;;;;0.00;0.00;;;;;23.44;36.83;102216.41;5183048;27;43893;-76
2024/04/20 04:33:19;;;;;;;;;1.33;1.00;;;;;23.48;36.24;102225.72;5184650;27;43833;-76
2024/04/20 04:35:44;;;;;;;;;1.00;1.00;;;;;23.48;36.65;102225.72;5184606;27;44738;-76
2024/04/20 04:38:10;;;;;;;;;2.00;0.00;;;;;23.63;36.63;102251.72;5182255;27;44600;-76
2024/04/20 04:40:35;;;;;;;;;0.00;0.00;;;;;23.63;36.44;102262.38;5184754;27;43946;-74
2024/04/20 04:43:00;;;;;;;;;2.00;1.00;;;;;23.62;36.01;102253.59;5184692;27;43918;-76
2024/04/20 04:45:26;;;;;;;;;0.00;0.00;;;;;23.41;36.27;102227.34;5184347;27;43978;-76
2024/04/20 04:47:51;;;;;;;;;0.00;0.00;;;;;23.59;35.71;102255.72;5183778;27;44050;-76
2024/04/20 04:50:16;;;;;;;;;1.33;1.33;;;;;23.58;35.82;102246.06;5184294;27;43975;-76
2024/04/20 04:52:42;;;;;;;;;0.00;0.00;;;;;23.57;36.04;102255.88;5184180;27;43901;-76
2024/04/20 04:55:07;;;;;;;;;0.67;0.00;;;;;23.47;35.68;102231.22;5184349;27;43960;-76
2024/04/20 04:57:33;;;;;;;;;0.00;0.00;;;;;23.61;36.38;102259.03;5184337;27;43849;-76
2024/04/20 04:59:58;;;;;;;;;0.00;0.00;;;;;23.43;36.73;102232.50;5184397;27;43987;-74
2024/04/20 05:02:23;;;;;;;;;1.00;1.00;;;;;23.43;36.64;102238.63;5184443;27;44356;-76
2024/04/20 05:04:49;;;;;;;;;0.00;0.00;;;;;23.61;36.75;102264.34;5184174;27;45163;-77
2024/04/20 05:07:14;;;;;;;;;1.00;1.00;;;;;23.52;35.88;102258.16;5183909;27;43979;-74
2024/04/20 05:09:39;;;;;;;;;0.00;0.00;;;;;23.54;36.50;102264.16;5184180;27;43941;-76
2024/04/20 05:12:05;;;;;;;;;0.00;0.00;;;;;23.55;35.69;102271.09;5183992;27;46415;-76
2024/04/20 05:14:30;;;;;;;;;1.00;1.00;;;;;23.50;35.47;102260.97;5183998;27;45762;-76
2024/04/20 05:16:56;;;;;;;;;0.00;0.00;;;;;23.46;35.55;102262.25;5184038;27;44083;-76
2024/04/20 05:19:22;;;;;;;;;1.33;1.00;;;;;23.59;35.80;102291.09;5184167;27;44224;-76
2024/04/20 05:21:47;;;;;;;;;0.67;0.00;;;;;23.56;36.95;102288.72;5183637;27;44053;-76
2024/04/20 05:24:12;;;;;;;;;0.00;0.00;;;;;23.55;35.94;102286.25;5183940;27;45035;-76
2024/04/20 05:26:38;;;;;;;;;1.00;0.00;;;;;23.59;36.27;102298.22;5181933;27;43991;-76
2024/04/20 05:29:03;;;;;;;;;0.33;0.00;;;;;23.55;36.47;102294.22;5183943;27;43953;-75
2024/04/20 05:31:29;;;;;;;;;0.00;0.00;;;;;23.50;36.38;102286.69;5183903;27;44107;-76
2024/04/20 05:33:54;;;;;;;;;0.00;0.00;;;;;23.54;36.22;102292.53;5183707;27;45630;-77
2024/04/20 05:36:20;;;;;;;;;2.33;0.00;;;;;23.55;35.46;102294.22;5183345;27;44011;-76
2024/04/20 05:38:46;;;;;;;;;0.67;0.67;;;;;23.56;35.12;102301.16;5183860;27;43960;-75
2024/04/20 05:41:11;;;;;;;;;0.67;0.33;;;;;23.37;35.52;102277.28;5183644;27;44046;-76
2024/04/20 05:43:36;;;;;;;;;0.00;0.00;;;;;23.60;35.58;102313.19;5183516;27;44590;-76
2024/04/20 05:46:02;;;;;;;;;1.33;0.33;;;;;23.29;36.56;102263.91;5183706;27;43935;-77
2024/04/20 05:48:28;;;;;;;;;1.00;0.00;;;;;23.61;36.36;102330.78;5183392;27;43860;-76
2024/04/20 05:50:53;;;;;;;;;1.00;1.00;;;;;23.52;35.96;102314.75;5183031;27;43840;-76
2024/04/20 05:53:19;;;;;;;;;0.00;0.00;;;;;23.53;36.06;102307.63;5183132;27;45597;-77
2024/04/20 05:55:44;;;;;;;;;0.67;0.67;;;;;23.59;36.18;102328.28;5183498;27;43986;-77
2024/04/20 05:58:11;;;;;;;;;1.00;1.00;;;;;23.60;35.19;102329.13;5183361;27;44323;-76
2024/04/20 06:00:37;;;;;;;;;2.67;0.00;;;;;23.60;36.16;102332.59;5184792;27;43949;-76
2024/04/20 06:03:02;;;;;;;;;3.00;1.00;;;;;23.66;35.29;102341.75;5186167;27;44848;-76
2024/04/20 06:05:28;;;;;;;;;1.00;0.00;;;;;23.66;35.10;102341.75;5185701;27;44040;-76
2024/04/20 06:07:53;;;;;;;;;1.00;0.67;;;;;23.67;34.85;102338.13;5186213;27;43850;-75
2024/04/20 06:10:18;;;;;;;;;1.00;0.00;;;;;23.66;35.66;102339.09;5186045;27;43910;-76
2024/04/20 06:12:44;;;;;;;;;0.00;0.00;;;;;23.57;35.36;102334.72;5184246;27;46119;-76
2024/04/20 06:15:09;;;;;;;;;0.00;0.00;;;;;23.68;35.81;102353.06;5186061;27;43839;-76
2024/04/20 06:17:34;;;;;;;;;3.00;0.00;;;;;23.69;35.77;102354.75;5186169;27;44311;-75
2024/04/20 06:20:00;;;;;;;;;0.00;0.00;;;;;23.62;35.10;102345.72;5185608;27;43964;-76
2024/04/20 06:22:25;;;;;;;;;1.00;0.00;;;;;23.63;35.52;102347.38;5185851;27;45770;-76
2024/04/20 06:24:53;;;;;;;;;0.00;0.00;;;;;23.70;35.28;102358.25;5185725;27;43921;-76
2024/04/20 06:27:20;;;;;;;;;0.67;0.67;;;;;23.71;35.59;102365.22;5185934;27;44023;-76
2024/04/20 06:29:45;;;;;;;;;2.00;0.00;;;;;23.63;34.87;102350.03;5185902;27;43933;-76
2024/04/20 06:32:11;;;;;;;;;0.00;0.00;;;;;23.52;36.10;102337.84;5185721;27;44712;-75
2024/04/20 06:34:36;;;;;;;;;1.33;1.00;;;;;23.74;35.86;102372.88;5183615;27;43809;-77
2024/04/20 06:37:01;;;;;;;;;2.00;0.00;;;;;23.69;36.04;102365.38;5185932;27;44046;-76
2024/04/20 06:39:27;;;;;;;;;0.00;0.00;;;;;23.66;35.95;102367.50;5185832;27;44048;-76
2024/04/20 06:41:56;;;;;;;;;1.00;1.00;;;;;23.60;35.39;102359.16;5185682;27;44350;-76
2024/04/20 06:44:22;;;;;;;;;1.00;0.00;;;;;23.75;35.38;102387.84;5185946;27;43916;-76
2024/04/20 06:46:47;;;;;;;;;2.00;1.00;;;;;23.77;35.20;102395.66;5185549;27;44486;-76
2024/04/20 06:49:13;;;;;;;;;0.00;0.00;;;;;23.77;35.57;102390.34;5185238;27;43933;-76
2024/04/20 06:51:39;;;;;;;;;1.00;1.00;;;;;23.67;34.73;102378.00;5183695;27;46959;-75
2024/04/20 06:54:04;;;;;;;;;0.67;0.67;;;;;23.77;35.32;102399.16;5185602;27;43917;-76
2024/04/20 06:56:30;;;;;;;;;1.00;0.33;;;;;23.72;35.44;102401.44;5183861;27;43921;-77
2024/04/20 06:58:56;;;;;;;;;2.33;0.67;;;;;23.65;34.82;102384.44;5185579;27;43964;-76
2024/04/20 07:01:21;;;;;;;;;0.00;0.00;;;;;23.78;34.75;102407.97;5185387;27;45834;-77
2024/04/20 07:03:46;;;;;;;;;2.00;0.00;;;;;23.78;35.46;102413.28;5185036;27;43861;-76
2024/04/20 07:06:12;;;;;;;;;0.00;0.00;;;;;23.74;35.11;102412.75;5185728;27;44024;-76
2024/04/20 07:08:37;;;;;;;;;0.00;0.00;;;;;23.67;34.26;102406.38;5185384;27;44071;-76
2024/04/20 07:11:04;;;;;;;;;0.33;0.33;;;;;23.74;35.11;102408.25;5183393;27;45619;-76
2024/04/20 07:13:41;;;;;;;;;0.00;0.00;;;;;23.73;35.82;102414.56;5185455;27;43901;-76
2024/04/20 07:16:06;;;;;;;;;2.00;1.00;;;;;23.75;34.88;102417.06;5185636;27;43984;-76
2024/04/20 07:18:32;;;;;;;;;0.33;0.33;;;;;23.74;35.78;102413.56;5184855;27;44015;-76
2024/04/20 07:21:07;;;;;;;;;0.33;0.33;;;;;23.79;34.97;102423.75;5185336;27;44612;-76
2024/04/20 07:23:33;;;;;;;;;0.00;0.00;;;;;23.67;34.80;102409.88;5185421;27;43881;-76
2024/04/20 07:25:59;;;;;;;;;0.67;0.00;;;;;23.79;35.17;102430.88;5185101;27;44077;-75
2024/04/20 07:28:24;;;;;;;;;1.00;0.00;;;;;23.79;35.41;102429.06;5185308;27;43884;-79
2024/04/20 07:30:50;;;;;;;;;1.33;0.00;;;;;23.72;34.79;102423.53;5183541;27;45941;-78
2024/04/20 07:33:15;;;;;;;;;0.00;0.00;;;;;23.79;35.96;102437.03;5183914;27;43913;-80
2024/04/20 07:35:41;;;;;;;;;1.33;1.00;;;;;23.61;35.94;102411.31;5185423;27;43800;-81
2024/04/20 07:38:06;;;;;;;;;0.00;0.00;;;;;23.80;34.79;102438.72;5183620;27;44067;-84
2024/04/20 07:40:31;;;;;;;;;0.00;0.00;;;;;23.81;34.43;102440.38;5185070;27;44711;-85
2024/04/20 07:42:57;;;;;;;;;2.00;0.00;;;;;23.66;36.22;102421.47;5185793;27;43909;-83
2024/04/20 07:45:22;;;;;;;;;1.00;0.00;;;;;23.71;35.51;102428.97;5178691;27;44070;-88
2024/04/20 07:47:47;;;;;;;;;0.00;0.00;;;;;23.70;35.27;102425.50;5153056;27;43915;-88
2024/04/20 07:50:15;;;;;;;;;0.00;0.00;;;;;23.81;36.12;102436.91;5172031;27;45117;-90
2024/04/20 07:52:40;;;;;;;;;2.00;0.67;;;;;23.78;36.04;102434.53;5173550;27;43969;-87
2024/04/20 07:55:06;;;;;;;;;0.00;0.00;;;;;23.89;36.22;102452.88;5184467;27;43904;-88
2024/04/20 07:57:32;;;;;;;;;1.00;1.00;;;;;23.77;36.23;102427.53;5184973;27;43997;-85
2024/04/20 07:59:57;;;;;;;;;0.00;0.00;;;;;23.91;35.65;102448.28;5184733;27;44114;-87
2024/04/20 08:02:22;;;;;;;;;2.00;1.00;;;;;23.87;36.66;102441.56;5184884;27;43987;-88
2024/04/20 08:04:48;;;;;;;;;0.00;0.00;;;;;23.70;36.41;102422.84;5184329;27;44276;-86
2024/04/20 08:07:13;;;;;;;;;0.00;0.00;;;;;23.94;37.07;102455.09;5180710;27;43968;-84
2024/04/20 08:09:38;;;;;;;;;0.67;0.67;;;;;23.95;36.66;102462.06;5184875;27;44534;-84
2024/04/20 08:12:04;;;;;;;;;0.25;0.25;;;;;23.96;35.95;102463.75;5184356;27;43710;-80
2024/04/20 08:14:30;;;;;;;;;1.00;1.00;;;;;23.94;35.73;102461.22;5183057;27;44024;-77
2024/04/20 08:16:55;;;;;;;;;0.00;0.00;;;;;23.95;36.08;102468.22;5183807;27;44130;-79
2024/04/20 08:19:20;;;;;;;;;2.00;1.00;;;;;23.80;35.56;102444.03;5184350;27;44593;-84
2024/04/20 08:21:46;;;;;;;;;1.00;1.00;;;;;23.98;35.73;102476.88;5175587;27;44073;-88
2024/04/20 08:24:11;;;;;;;;;2.00;1.00;;;;;23.98;36.09;102480.38;5182259;27;43960;-90
2024/04/20 08:26:36;;;;;;;;;0.00;0.00;;;;;23.99;36.24;102478.56;5184279;27;44027;-87
2024/04/20 08:29:02;;;;;;;;;0.00;0.00;;;;;23.83;36.20;102457.03;5184530;27;45709;-79
2024/04/20 08:31:27;;;;;;;;;1.67;1.00;;;;;23.82;36.62;102455.34;5182378;27;44265;-78
2024/04/20 08:33:52;;;;;;;;;2.00;2.00;;;;;23.95;35.99;102483.34;5184320;27;43980;-77
2024/04/20 08:36:18;;;;;;;;;1.00;1.00;;;;;24.00;36.79;102489.03;5185031;27;43933;-79
2024/04/20 08:38:43;;;;;;;;;0.33;0.33;;;;;23.99;35.57;102478.56;5184286;27;43908;-79
2024/04/20 08:41:13;;;;;;;;;3.00;1.67;;;;;23.79;37.37;102452.97;5184318;27;44011;-79
2024/04/20 08:43:39;;;;;;;;;0.33;0.33;;;;;24.04;37.47;102490.41;5184310;27;43912;-78
2024/04/20 08:46:06;;;;;;;;;1.00;1.00;;;;;24.05;36.95;102504.53;5183986;27;44004;-80
2024/04/20 08:48:32;;;;;;;;;2.00;1.00;;;;;23.98;37.20;102493.69;5183155;27;45047;-77
2024/04/20 08:51:06;;;;;;;;;2.00;0.00;;;;;24.06;37.15;102514.19;5184536;27;44248;-78
2024/04/20 08:53:33;;;;;;;;;0.33;0.33;;;;;23.93;36.65;102490.63;5184586;27;43877;-83
2024/04/20 08:56:00;;;;;;;;;1.33;0.00;;;;;24.02;35.27;102508.31;5184814;27;44023;-81
2024/04/20 08:58:25;;;;;;;;;3.33;1.00;;;;;23.92;35.40;102499.59;5183744;27;44800;-81
2024/04/20 09:00:54;;;;;;;;;0.67;0.67;;;;;23.86;34.52;102498.41;5183740;27;44105;-80
2024/04/20 09:03:21;;;;;;;;;3.67;1.00;;;;;23.84;33.66;102511.81;5184366;27;43995;-78
2024/04/20 09:05:48;;;;;;;;;1.00;1.00;;;;;23.54;33.06;102474.03;5184274;27;44014;-78
2024/04/20 09:08:15;;;;;;;;;1.67;1.67;;;;;23.58;33.33;102482.50;5183952;27;45717;-78
2024/04/20 09:10:40;;;;;;;;;4.00;2.00;;;;;23.70;33.22;102507.91;5184220;27;44031;-79
2024/04/20 09:13:08;;;;;;;;;2.00;1.00;;;;;23.55;31.95;102494.28;5184756;27;43992;-84
2024/04/20 09:15:33;;;;;;;;;3.00;1.00;;;;;23.35;31.76;102497.03;5184142;27;43968;-80
2024/04/20 09:18:00;;;;;;;;;1.00;1.00;;;;;23.30;30.73;102501.94;5183504;27;45810;-77
2024/04/20 09:20:26;;;;;;;;;2.67;1.00;;;;;23.10;31.32;102483.47;5183952;27;43955;-76
2024/04/20 09:23:10;;;;;;;;;0.00;0.00;;;;;23.26;30.16;102505.91;5183745;27;43931;-76
2024/04/20 09:25:38;;;;;;;;;4.33;1.00;;;;;23.25;30.80;102509.53;5184542;27;44020;-76
2024/04/20 09:28:07;;;;;;;;;2.33;1.00;;;;;22.95;30.56;102475.19;5183236;27;44097;-75
2024/04/20 09:30:32;;;;;;;;;3.00;1.67;;;;;23.24;31.67;102523.78;5183559;27;44035;-76
2024/04/20 09:32:58;;;;;;;;;4.00;1.67;;;;;23.12;31.32;102502.75;5183836;27;43834;-73
2024/04/20 09:35:24;;;;;;;;;5.67;2.00;;;;;23.22;30.38;102523.09;5180294;27;44488;-75
2024/04/20 09:37:52;;;;;;;;;4.67;2.00;;;;;23.10;30.89;102504.72;5184831;27;45707;-75
2024/04/20 09:40:18;;;;;;;;;0.33;0.00;;;;;23.10;31.08;102509.19;5185377;27;44003;-72
2024/04/20 09:42:46;;;;;;;;;1.67;1.67;;;;;23.10;31.26;102501.22;5185743;27;44083;-73
2024/04/20 09:45:12;;;;;;;;;4.00;1.00;;;;;23.23;30.25;102528.28;5185436;27;44055;-74
2024/04/20 09:47:39;;;;;;;;;2.00;1.00;;;;;23.15;31.01;102510.41;5185782;27;44975;-76
2024/04/20 09:50:11;;;;;;;;;3.33;1.33;;;;;23.28;31.21;102519.84;5185630;27;43663;-78
2024/04/20 09:52:56;;;;;;;;;2.00;2.00;;;;;23.30;30.48;102515.22;5185878;27;44043;-76
2024/04/20 09:55:30;;;;;;;;;2.00;2.00;;;;;23.33;30.72;102517.59;5185602;27;43885;-76
2024/04/20 09:58:01;;;;;;;;;4.00;1.00;;;;;23.33;30.03;102514.09;5181523;27;44702;-84
2024/04/20 10:00:29;;;;;;;;;3.33;1.00;;;;;23.34;30.39;102515.78;5181809;27;44048;-79
2024/04/20 10:02:56;;;;;;;;;6.00;3.00;;;;;23.34;30.48;102521.09;5185901;27;43997;-84
2024/04/20 10:05:22;;;;;;;;;2.67;1.67;;;;;23.24;30.47;102507.84;5185618;27;43881;-75
2024/04/20 10:07:51;;;;;;;;;2.00;2.00;;;;;23.36;30.99;102519.13;5210596;27;45758;-78
2024/04/20 10:10:16;;;;;;;;;3.33;2.00;;;;;23.27;30.44;102503.09;5184866;27;44074;-78
2024/04/20 10:12:43;;;;;;;;;2.00;0.00;;;;;23.11;29.85;102471.03;5182479;27;44048;-75
2024/04/20 10:15:10;;;;;;;;;1.33;1.33;;;;;23.40;29.70;102518.66;5185992;27;43924;-78
2024/04/20 10:17:36;;;;;;;;;1.00;1.00;;;;;23.37;31.07;102504.84;5186450;27;43912;-84
2024/04/20 10:20:01;;;;;;;;;4.00;1.33;;;;;23.46;30.59;102514.59;5186707;27;43948;-82
2024/04/20 10:22:27;;;;;;;;;2.00;0.67;;;;;23.51;31.19;102516.81;5194544;27;43420;-79
2024/04/20 10:24:58;;;;;;;;;2.33;2.00;;;;;23.56;30.40;102511.06;5184931;27;44048;-77
2024/04/20 10:27:25;;;;;;;;;1.00;1.00;;;;;23.58;31.41;102503.75;5184273;27;44925;-76
2024/04/20 10:29:50;;;;;;;;;4.00;1.00;;;;;23.62;31.74;102513.13;5184740;27;43961;-78
2024/04/20 10:32:22;;;;;;;;;1.33;1.00;;;;;23.59;30.98;102511.59;5182425;27;44018;-79
2024/04/20 10:34:47;;;;;;;;;2.67;2.00;;;;;23.68;31.76;102519.66;5182047;27;44039;-79
2024/04/20 10:37:22;;;;;;;;;6.00;1.00;;;;;23.71;31.71;102516.69;5184127;27;43993;-79
2024/04/20 10:39:47;;;;;;;;;0.00;0.00;;;;;23.73;31.94;102518.19;5184532;27;44008;-78
2024/04/20 10:42:13;;;;;;;;;5.00;1.00;;;;;23.75;31.86;102510.09;5183889;27;43920;-77
2024/04/20 10:44:39;;;;;;;;;3.00;2.00;;;;;23.67;31.10;102489.59;5184680;27;43876;-80
2024/04/20 10:47:04;;;;;;;;;1.00;1.00;;;;;23.69;32.30;102492.91;5184121;27;43903;-77
2024/04/20 10:49:31;;;;;;;;;3.00;1.00;;;;;23.76;32.24;102502.97;5184490;27;43945;-79
2024/04/20 10:51:57;;;;;;;;;2.00;1.00;;;;;23.87;32.74;102513.34;5185172;27;43990;-76
2024/04/20 10:54:24;;;;;;;;;5.00;1.00;;;;;23.85;32.08;102515.31;5185518;27;43925;-76
2024/04/20 10:56:52;;;;;;;;;5.00;1.00;;;;;23.89;33.20;102514.03;5183108;27;46156;-76
2024/04/20 10:59:18;;;;;;;;;3.00;2.00;;;;;23.91;32.29;102519.22;5185292;27;43984;-77
2024/04/20 11:01:44;;;;;;;;;0.00;0.00;;;;;23.92;32.57;102513.72;5188436;27;44480;-78
2024/04/20 11:04:10;;;;;;;;;0.33;0.00;;;;;23.83;32.99;102504.84;5185117;27;43968;-75
2024/04/20 11:06:35;;;;;;;;;2.00;1.00;;;;;23.96;33.40;102523.09;5184608;27;44884;-76
2024/04/20 11:09:02;;;;;;;;;2.00;2.00;;;;;23.95;32.99;102518.75;5184690;27;43857;-76
2024/04/20 11:11:27;;;;;;;;;5.00;2.67;;;;;23.88;33.61;102506.22;5184317;27;43983;-79
2024/04/20 11:13:59;;;;;;;;;1.00;1.00;;;;;24.03;32.63;102517.97;5184985;27;43808;-75
2024/04/20 11:16:26;;;;;;;;;2.33;1.00;;;;;23.94;33.00;102500.31;5184725;27;43984;-74
2024/04/20 11:18:52;;;;;;;;;4.00;1.00;;;;;23.95;33.74;102499.28;5184199;27;43952;-74